createdAt,value
2023-04-02T00:00:10.649Z,10.12
2023-04-02T00:01:50.898Z,10.17
2023-04-02T00:02:58.417Z,10.17
2023-04-02T00:04:00.002Z,10.19
2023-04-02T00:05:16.354Z,10.23
2023-04-02T00:06:45.274Z,10.19
2023-04-02T00:07:58.153Z,10.11
2023-04-02T00:09:03.289Z,10.08
2023-04-02T00:10:05.348Z,10.06
2023-04-02T00:11:09.104Z,10.10
2023-04-02T00:12:19.454Z,10.16
2023-04-02T00:13:43.904Z,10.20
2023-04-02T00:14:48.608Z,10.21
2023-04-02T00:15:54.481Z,10.17
2023-04-02T00:17:01.363Z,10.16
2023-04-02T00:18:04.188Z,10.21
2023-04-02T00:19:07.521Z,10.19
2023-04-02T00:20:15.867Z,10.19
2023-04-02T00:21:17.254Z,10.14
2023-04-02T00:22:26.482Z,10.14
2023-04-02T00:23:28.380Z,10.15
2023-04-02T00:24:30.052Z,10.16
2023-04-02T00:25:36.994Z,10.16
2023-04-02T00:26:58.889Z,10.21
2023-04-02T00:28:00.690Z,10.19
2023-04-02T00:29:04.298Z,10.17
2023-04-02T00:30:07.079Z,10.18
2023-04-02T00:31:10.951Z,10.19
2023-04-02T00:32:20.858Z,10.19
2023-04-02T00:33:28.144Z,10.17
2023-04-02T00:34:34.986Z,10.16
2023-04-02T00:35:39.457Z,10.10
2023-04-02T00:36:42.126Z,10.09
2023-04-02T00:37:47.206Z,10.13
2023-04-02T00:38:49.161Z,10.18
2023-04-02T00:40:07.316Z,10.17
2023-04-02T00:41:10.466Z,10.16
2023-04-02T00:42:14.326Z,10.17
2023-04-02T00:43:16.835Z,10.17
2023-04-02T00:44:22.055Z,10.17
2023-04-02T00:45:30.861Z,10.12
2023-04-02T00:46:46.957Z,10.12
2023-04-02T00:47:48.880Z,10.10
2023-04-02T00:48:59.702Z,10.08
2023-04-02T00:50:18.554Z,10.08
2023-04-02T00:51:38.086Z,10.12
2023-04-02T00:52:42.166Z,10.15
2023-04-02T00:53:47.386Z,10.06
2023-04-02T00:54:54.901Z,10.10
2023-04-02T00:55:58.878Z,10.13
2023-04-02T00:57:01.770Z,10.12
2023-04-02T00:58:16.013Z,10.07
2023-04-02T00:59:30.992Z,10.12
2023-04-02T01:00:35.205Z,10.07
2023-04-02T01:01:37.841Z,10.11
2023-04-02T01:02:41.217Z,10.14
2023-04-02T01:03:43.958Z,10.14
2023-04-02T01:05:05.540Z,10.14
2023-04-02T01:06:11.414Z,10.12
2023-04-02T01:07:13.247Z,10.11
2023-04-02T01:08:36.305Z,10.08
2023-04-02T01:09:45.491Z,10.00
2023-04-02T01:11:15.895Z,10.01
2023-04-02T01:12:20.455Z,10.03
2023-04-02T01:13:31.121Z,10.04
2023-04-02T01:15:01.252Z,10.09
2023-04-02T01:16:36.485Z,10.04
2023-04-02T01:18:09.696Z,10.04
2023-04-02T01:19:43.734Z,10.07
2023-04-02T01:21:36.936Z,10.12
2023-04-02T01:23:11.796Z,10.07
2023-04-02T01:24:14.570Z,10.06
2023-04-02T01:25:26.102Z,10.10
2023-04-02T01:26:51.702Z,10.12
2023-04-02T01:28:20.190Z,10.18
2023-04-02T01:29:27.600Z,10.19
2023-04-02T01:30:29.344Z,10.17
2023-04-02T01:31:33.461Z,10.16
2023-04-02T01:32:36.132Z,10.12
2023-04-02T01:33:41.340Z,10.12
2023-04-02T01:34:44.755Z,10.08
2023-04-02T01:35:55.921Z,10.09
2023-04-02T01:37:06.348Z,10.11
2023-04-02T01:38:18.132Z,10.02
2023-04-02T01:39:56.177Z,10.05
2023-04-02T01:41:09.353Z,10.04
2023-04-02T01:42:48.800Z,10.08
2023-04-02T01:43:58.323Z,10.08
2023-04-02T01:45:08.039Z,10.07
2023-04-02T01:46:30.464Z,10.09
2023-04-02T01:47:33.322Z,10.08
2023-04-02T01:48:34.924Z,10.06
2023-04-02T01:49:36.669Z,10.08
2023-04-02T01:50:41.692Z,10.10
2023-04-02T01:51:46.351Z,10.13
2023-04-02T01:52:54.032Z,10.16
2023-04-02T01:53:59.475Z,10.19
2023-04-02T01:55:01.510Z,10.11
2023-04-02T01:56:04.890Z,10.11
2023-04-02T01:57:08.186Z,10.13
2023-04-02T01:58:11.858Z,10.13
2023-04-02T01:59:16.817Z,10.12
2023-04-02T02:00:19.620Z,10.14
2023-04-02T02:01:25.887Z,10.14
2023-04-02T02:02:28.104Z,10.18
2023-04-02T02:03:30.374Z,10.10
2023-04-02T02:04:34.106Z,10.10
2023-04-02T02:05:36.427Z,10.08
2023-04-02T02:06:38.327Z,10.05
2023-04-02T02:07:41.384Z,10.07
2023-04-02T02:08:58.720Z,10.13
2023-04-02T02:10:00.336Z,10.17
2023-04-02T02:11:02.553Z,10.13
2023-04-02T02:12:04.415Z,10.13
2023-04-02T02:13:14.390Z,10.10
2023-04-02T02:14:18.826Z,10.09
2023-04-02T02:15:23.462Z,10.07
2023-04-02T02:16:29.324Z,10.08
2023-04-02T02:17:34.659Z,10.05
2023-04-02T02:18:36.466Z,10.01
2023-04-02T02:19:55.760Z,10.04
2023-04-02T02:21:00.085Z,10.04
2023-04-02T02:22:04.264Z,10.06
2023-04-02T02:23:06.175Z,10.10
2023-04-02T02:24:19.268Z,10.11
2023-04-02T02:25:25.104Z,10.12
2023-04-02T02:26:29.666Z,10.17
2023-04-02T02:27:45.383Z,10.20
2023-04-02T02:28:53.655Z,10.10
2023-04-02T02:30:23.534Z,10.06
2023-04-02T02:31:31.208Z,10.06
2023-04-02T02:32:34.823Z,10.06
2023-04-02T02:33:42.282Z,10.05
2023-04-02T02:35:02.061Z,10.03
2023-04-02T02:36:23.465Z,10.06
2023-04-02T02:37:30.652Z,10.01
2023-04-02T02:38:39.223Z,10.05
2023-04-02T02:39:44.490Z,10.09
2023-04-02T02:40:50.477Z,9.96
2023-04-02T02:41:57.438Z,9.90
2023-04-02T02:43:02.623Z,9.84
2023-04-02T02:44:10.375Z,9.85
2023-04-02T02:45:19.078Z,9.90
2023-04-02T02:46:23.668Z,9.91
2023-04-02T02:47:28.408Z,9.90
2023-04-02T02:48:37.505Z,9.92
2023-04-02T02:49:52.397Z,9.97
2023-04-02T02:50:56.195Z,9.98
2023-04-02T02:52:12.867Z,10.01
2023-04-02T02:53:24.829Z,10.03
2023-04-02T02:54:27.904Z,9.98
2023-04-02T02:55:37.720Z,10.00
2023-04-02T02:56:44.332Z,10.02
2023-04-02T02:57:52.740Z,10.06
2023-04-02T02:58:56.929Z,9.98
2023-04-02T03:00:05.601Z,9.98
2023-04-02T03:01:08.143Z,10.00
2023-04-02T03:02:11.013Z,9.98
2023-04-02T03:03:17.007Z,9.97
2023-04-02T03:04:25.146Z,10.03
2023-04-02T03:05:28.535Z,10.06
2023-04-02T03:06:30.464Z,10.06
2023-04-02T03:07:32.548Z,10.06
2023-04-02T03:08:40.362Z,10.04
2023-04-02T03:10:14.474Z,9.97
2023-04-02T03:11:58.476Z,9.98
2023-04-02T03:13:05.303Z,9.96
2023-04-02T03:14:31.096Z,9.97
2023-04-02T03:15:38.295Z,9.97
2023-04-02T03:16:49.162Z,9.96
2023-04-02T03:18:00.619Z,9.97
2023-04-02T03:19:26.637Z,10.03
2023-04-02T03:20:44.249Z,10.01
2023-04-02T03:22:19.491Z,10.03
2023-04-02T03:23:35.274Z,10.05
2023-04-02T03:24:46.778Z,10.07
2023-04-02T03:25:56.266Z,10.04
2023-04-02T03:27:20.541Z,10.06
2023-04-02T03:28:32.125Z,9.94
2023-04-02T03:29:39.483Z,9.96
2023-04-02T03:30:44.655Z,9.97
2023-04-02T03:31:57.815Z,9.94
2023-04-02T03:33:43.839Z,9.97
2023-04-02T03:34:58.718Z,10.01
2023-04-02T03:36:10.762Z,10.01
2023-04-02T03:37:26.103Z,10.04
2023-04-02T03:38:38.841Z,10.01
2023-04-02T03:40:08.423Z,10.03
2023-04-02T03:41:12.159Z,10.07
2023-04-02T03:42:22.649Z,10.06
2023-04-02T03:43:37.128Z,10.04
2023-04-02T03:45:08.134Z,9.96
2023-04-02T03:46:09.565Z,9.99
2023-04-02T03:47:19.296Z,10.00
2023-04-02T03:48:37.365Z,10.03
2023-04-02T03:49:47.906Z,10.04
2023-04-02T03:51:00.550Z,9.99
2023-04-02T03:52:06.742Z,10.00
2023-04-02T03:53:09.183Z,10.05
2023-04-02T03:56:58.883Z,10.10
2023-04-02T04:00:32.859Z,10.09
2023-04-02T04:03:02.771Z,10.00
2023-04-02T04:04:19.244Z,10.03
2023-04-02T04:05:35.513Z,9.97
2023-04-02T04:06:42.863Z,9.94
2023-04-02T04:07:44.874Z,9.95
2023-04-02T04:08:58.475Z,9.99
2023-04-02T04:10:05.807Z,9.99
2023-04-02T04:11:16.766Z,10.00
2023-04-02T04:12:36.161Z,10.00
2023-04-02T04:13:56.638Z,10.03
2023-04-02T04:15:09.605Z,10.04
2023-04-02T04:16:26.719Z,10.04
2023-04-02T04:17:57.195Z,10.03
2023-04-02T04:19:21.675Z,10.08
2023-04-02T04:32:38.519Z,9.95
2023-04-02T04:34:07.926Z,9.94
2023-04-02T04:35:42.219Z,9.98
2023-04-02T04:37:09.262Z,9.95
2023-04-02T04:38:39.210Z,9.99
2023-04-02T04:39:51.118Z,9.97
2023-04-02T04:41:10.432Z,9.97
2023-04-02T04:42:25.703Z,9.94
2023-04-02T04:43:37.722Z,9.96
2023-04-02T04:44:51.182Z,9.95
2023-04-02T04:46:01.619Z,9.92
2023-04-02T04:47:23.701Z,9.79
2023-04-02T04:48:36.383Z,9.83
2023-04-02T04:52:57.871Z,9.86
2023-04-02T04:54:17.478Z,9.90
2023-04-02T04:55:45.245Z,9.91
2023-04-02T04:56:55.994Z,9.89
2023-04-02T04:58:59.959Z,9.92
2023-04-02T05:04:26.459Z,9.97
2023-04-02T05:05:33.883Z,9.96
2023-04-02T05:06:38.545Z,9.96
2023-04-02T05:07:49.169Z,9.97
2023-04-02T05:08:57.309Z,9.99
2023-04-02T05:10:27.399Z,10.01
2023-04-02T05:12:00.223Z,10.00
2023-04-02T05:13:14.247Z,9.94
2023-04-02T05:14:25.898Z,9.96
2023-04-02T05:15:35.589Z,9.98
2023-04-02T05:16:47.010Z,9.98
2023-04-02T05:18:26.982Z,9.98
2023-04-02T05:19:37.568Z,9.93
2023-04-02T05:21:07.050Z,9.89
2023-04-02T05:22:41.314Z,9.89
2023-04-02T05:23:53.726Z,9.96
2023-04-02T05:25:19.871Z,10.03
2023-04-02T05:26:31.624Z,9.94
2023-04-02T05:27:46.712Z,9.88
2023-04-02T05:29:02.675Z,9.87
2023-04-02T05:30:32.738Z,9.94
2023-04-02T05:31:46.840Z,9.95
2023-04-02T05:32:56.315Z,9.92
2023-04-02T05:33:58.168Z,9.82
2023-04-02T05:35:00.046Z,9.85
2023-04-02T05:36:12.381Z,9.89
2023-04-02T05:37:19.135Z,9.92
2023-04-02T05:38:23.748Z,9.93
2023-04-02T05:39:27.120Z,9.93
2023-04-02T05:40:46.473Z,9.97
2023-04-02T05:41:48.523Z,9.91
2023-04-02T05:42:52.936Z,9.97
2023-04-02T05:44:20.492Z,9.96
2023-04-02T05:45:31.757Z,9.96
2023-04-02T05:46:53.651Z,9.95
2023-04-02T05:48:01.617Z,9.96
2023-04-02T05:49:09.506Z,9.97
2023-04-02T05:50:27.101Z,9.90
2023-04-02T05:51:41.668Z,9.89
2023-04-02T05:52:48.780Z,9.91
2023-04-02T05:53:55.329Z,9.92
2023-04-02T05:55:04.734Z,9.93
2023-04-02T05:56:16.739Z,9.94
2023-04-02T05:57:29.572Z,9.97
2023-04-02T05:59:01.319Z,9.95
2023-04-02T06:00:07.812Z,9.95
2023-04-02T06:01:25.230Z,9.93
2023-04-02T06:02:37.367Z,9.97
2023-04-02T06:03:48.852Z,9.98
2023-04-02T06:05:15.137Z,9.98
2023-04-02T06:08:58.273Z,9.90
2023-04-02T06:10:35.542Z,9.93
2023-04-02T06:11:45.692Z,9.95
2023-04-02T06:12:54.090Z,9.94
2023-04-02T06:13:58.741Z,9.97
2023-04-02T06:15:00.588Z,9.97
2023-04-02T06:16:05.981Z,9.96
2023-04-02T06:17:12.127Z,9.94
2023-04-02T06:18:18.424Z,9.93
2023-04-02T06:19:27.611Z,9.97
2023-04-02T06:20:29.123Z,9.94
2023-04-02T06:21:31.794Z,9.97
2023-04-02T06:22:38.570Z,9.89
2023-04-02T06:24:01.164Z,9.95
2023-04-02T06:25:20.611Z,9.96
2023-04-02T06:26:41.824Z,9.95
2023-04-02T06:27:46.466Z,9.92
2023-04-02T06:28:53.805Z,9.92
2023-04-02T06:30:01.065Z,9.92
2023-04-02T06:31:09.663Z,9.92
2023-04-02T06:32:12.698Z,9.95
2023-04-02T06:33:15.552Z,9.94
2023-04-02T06:34:23.312Z,9.97
2023-04-02T06:35:25.058Z,9.94
2023-04-02T06:36:27.757Z,9.96
2023-04-02T06:37:36.871Z,9.97
2023-04-02T06:38:38.952Z,9.95
2023-04-02T06:39:40.569Z,9.95
2023-04-02T06:40:47.478Z,9.98
2023-04-02T06:42:04.481Z,9.99
2023-04-02T06:43:26.741Z,9.98
2023-04-02T06:48:02.100Z,9.93
2023-04-02T06:49:20.502Z,9.90
2023-04-02T06:50:25.226Z,9.91
2023-04-02T06:51:42.198Z,9.92
2023-04-02T06:53:14.767Z,9.98
2023-04-02T06:54:18.067Z,10.00
2023-04-02T06:55:50.496Z,10.06
2023-04-02T06:56:53.726Z,10.09
2023-04-02T06:57:55.612Z,10.04
2023-04-02T06:58:58.058Z,10.01
2023-04-02T06:59:59.811Z,9.98
2023-04-02T07:01:01.447Z,9.93
2023-04-02T07:02:16.750Z,10.00
2023-04-02T07:03:36.444Z,10.02
2023-04-02T07:04:38.209Z,10.03
2023-04-02T07:05:42.437Z,10.03
2023-04-02T07:06:44.509Z,10.01
2023-04-02T07:07:46.208Z,10.00
2023-04-02T07:08:55.568Z,9.99
2023-04-02T07:10:29.633Z,10.01
2023-04-02T07:11:31.672Z,9.97
2023-04-02T07:12:33.420Z,9.95
2023-04-02T07:13:34.986Z,9.99
2023-04-02T07:14:36.446Z,10.03
2023-04-02T07:15:38.175Z,10.04
2023-04-02T07:16:52.313Z,10.06
2023-04-02T07:38:37.569Z,9.71
2023-04-02T08:00:35.926Z,9.47
2023-04-02T08:06:12.561Z,9.43
2023-04-02T08:11:52.153Z,9.54
2023-04-02T08:14:05.420Z,9.42
2023-04-02T08:19:54.080Z,9.34
2023-04-02T08:20:57.629Z,9.35
2023-04-02T08:21:59.225Z,9.38
2023-04-02T08:23:01.147Z,9.43
2023-04-02T08:24:03.790Z,9.45
2023-04-02T08:25:05.826Z,9.49
2023-04-02T08:26:07.638Z,9.47
2023-04-02T08:27:14.481Z,9.45
2023-04-02T08:28:16.686Z,9.45
2023-04-02T08:29:18.366Z,9.49
2023-04-02T08:30:20.022Z,9.50
2023-04-02T08:31:21.907Z,9.54
2023-04-02T08:32:24.243Z,9.52
2023-04-02T08:33:26.395Z,9.49
2023-04-02T08:34:29.694Z,9.43
2023-04-02T08:35:31.309Z,9.41
2023-04-02T08:36:38.790Z,9.41
2023-04-02T08:37:41.407Z,9.45
2023-04-02T08:38:42.939Z,9.43
2023-04-02T08:39:44.363Z,9.43
2023-04-02T08:40:52.197Z,9.44
2023-04-02T08:42:03.015Z,9.43
2023-04-02T08:43:22.459Z,9.46
2023-04-02T08:44:53.697Z,9.51
2023-04-02T08:46:04.474Z,9.47
2023-04-02T08:47:08.374Z,9.46
2023-04-02T08:48:11.494Z,9.47
2023-04-02T08:49:16.880Z,9.42
2023-04-02T08:50:34.496Z,9.42
2023-04-02T08:51:37.194Z,9.42
2023-04-02T08:52:39.141Z,9.41
2023-04-02T08:53:42.149Z,9.44
2023-04-02T08:54:43.658Z,9.44
2023-04-02T08:56:05.531Z,9.40
2023-04-02T08:57:13.573Z,9.31
2023-04-02T08:58:21.269Z,9.21
2023-04-02T08:59:22.722Z,9.19
2023-04-02T09:00:39.989Z,9.20
2023-04-02T09:02:13.752Z,9.23
2023-04-02T09:03:22.226Z,9.28
2023-04-02T09:04:25.783Z,9.36
2023-04-02T09:05:31.893Z,9.39
2023-04-02T09:06:34.595Z,9.39
2023-04-02T09:07:36.455Z,9.38
2023-04-02T09:08:37.940Z,9.29
2023-04-02T09:09:39.434Z,9.27
2023-04-02T09:10:50.601Z,9.28
2023-04-02T09:11:59.070Z,9.35
2023-04-02T09:13:02.699Z,9.30
2023-04-02T09:14:13.432Z,9.33
2023-04-02T09:15:29.373Z,9.37
2023-04-02T09:16:54.352Z,9.33
2023-04-02T09:18:11.746Z,9.35
2023-04-02T09:19:32.687Z,9.41
2023-04-02T09:20:34.241Z,9.43
2023-04-02T09:21:44.352Z,9.46
2023-04-02T09:22:48.504Z,9.42
2023-04-02T09:23:50.621Z,9.37
2023-04-02T09:24:57.456Z,9.33
2023-04-02T09:26:04.606Z,9.30
2023-04-02T09:27:18.032Z,9.30
2023-04-02T09:28:24.389Z,9.30
2023-04-02T09:29:37.941Z,9.28
2023-04-02T09:31:01.552Z,9.27
2023-04-02T09:32:21.996Z,9.24
2023-04-02T09:33:49.031Z,9.21
2023-04-02T09:34:50.484Z,9.26
2023-04-02T09:35:51.907Z,9.30
2023-04-02T09:36:53.457Z,9.33
2023-04-02T09:38:10.321Z,9.38
2023-04-02T09:39:20.482Z,9.41
2023-04-02T09:40:35.152Z,9.46
2023-04-02T09:41:37.313Z,9.51
2023-04-02T09:42:38.852Z,9.52
2023-04-02T09:43:40.561Z,9.48
2023-04-02T09:44:41.972Z,9.47
2023-04-02T09:45:44.916Z,9.48
2023-04-02T09:46:51.155Z,9.50
2023-04-02T09:47:56.173Z,9.45
2023-04-02T09:49:01.466Z,9.45
2023-04-02T09:50:26.011Z,9.42
2023-04-02T09:51:34.224Z,9.39
2023-04-02T09:52:36.393Z,9.43
2023-04-02T09:53:42.843Z,9.42
2023-04-02T09:54:44.467Z,9.44
2023-04-02T09:55:46.196Z,9.43
2023-04-02T09:57:05.845Z,9.36
2023-04-02T09:58:16.668Z,9.33
2023-04-02T09:59:21.937Z,9.33
2023-04-02T10:00:32.229Z,9.38
2023-04-02T10:01:42.683Z,9.34
2023-04-02T10:02:46.744Z,9.21
2023-04-02T10:03:48.546Z,9.23
2023-04-02T10:04:50.242Z,9.21
2023-04-02T10:06:12.561Z,9.15
2023-04-02T10:07:38.256Z,9.19
2023-04-02T10:08:43.584Z,9.14
2023-04-02T10:09:45.098Z,9.08
2023-04-02T10:10:51.098Z,9.11
2023-04-02T10:11:55.759Z,9.15
2023-04-02T10:13:02.637Z,9.16
2023-04-02T10:14:10.003Z,9.12
2023-04-02T10:15:20.338Z,9.13
2023-04-02T10:16:33.170Z,9.16
2023-04-02T10:17:37.106Z,9.15
2023-04-02T10:18:50.727Z,9.22
2023-04-02T10:19:56.071Z,9.22
2023-04-02T10:21:03.263Z,9.25
2023-04-02T10:22:16.575Z,9.20
2023-04-02T10:23:19.674Z,9.15
2023-04-02T10:24:21.194Z,9.22
2023-04-02T10:25:27.040Z,9.27
2023-04-02T10:26:51.762Z,9.34
2023-04-02T10:28:00.547Z,9.37
2023-04-02T10:29:39.022Z,9.41
2023-04-02T10:31:03.773Z,9.43
2023-04-02T10:32:12.438Z,9.46
2023-04-02T10:33:30.326Z,9.48
2023-04-02T10:34:32.160Z,9.51
2023-04-02T10:35:55.663Z,9.51
2023-04-02T10:37:08.829Z,9.57
2023-04-02T10:38:22.143Z,9.56
2023-04-02T10:39:41.066Z,9.57
2023-04-02T10:40:45.850Z,9.61
2023-04-02T10:42:00.090Z,9.63
2023-04-02T10:43:32.930Z,9.72
2023-04-02T10:44:50.606Z,9.74
2023-04-02T10:46:06.388Z,9.82
2023-04-02T10:47:27.333Z,9.84
2023-04-02T10:48:50.621Z,9.88
2023-04-02T10:50:14.076Z,9.94
2023-04-02T10:51:24.215Z,10.00
2023-04-02T10:53:21.179Z,9.99
2023-04-02T10:54:30.700Z,10.01
2023-04-02T10:55:40.876Z,9.98
2023-04-02T10:56:50.703Z,9.98
2023-04-02T10:57:56.728Z,9.99
2023-04-02T10:59:28.338Z,9.94
2023-04-02T11:00:38.936Z,9.95
2023-04-02T11:01:43.248Z,9.92
2023-04-02T11:03:01.954Z,9.89
2023-04-02T11:04:14.756Z,9.70
2023-04-02T11:05:28.278Z,9.66
2023-04-02T11:06:42.103Z,9.56
2023-04-02T11:07:53.079Z,9.60
2023-04-02T11:09:00.394Z,9.59
2023-04-02T11:10:02.413Z,9.55
2023-04-02T11:11:17.175Z,9.53
2023-04-02T11:12:25.684Z,9.57
2023-04-02T11:14:01.178Z,9.62
2023-04-02T11:15:03.514Z,9.63
2023-04-02T11:16:05.306Z,9.60
2023-04-02T11:17:13.772Z,9.57
2023-04-02T11:18:31.000Z,9.65
2023-04-02T11:19:34.142Z,9.65
2023-04-02T11:20:44.107Z,9.63
2023-04-02T11:21:59.872Z,9.51
2023-04-02T11:23:13.420Z,9.40
2023-04-02T11:24:30.636Z,9.33
2023-04-02T11:25:32.480Z,9.39
2023-04-02T11:26:46.179Z,9.40
2023-04-02T11:27:48.221Z,9.41
2023-04-02T11:28:49.977Z,9.42
2023-04-02T11:30:18.515Z,9.28
2023-04-02T11:31:20.845Z,9.26
2023-04-02T11:32:22.303Z,9.24
2023-04-02T11:33:38.605Z,9.26
2023-04-02T11:34:41.013Z,9.24
2023-04-02T11:35:42.655Z,9.21
2023-04-02T11:36:50.042Z,9.21
2023-04-02T11:37:51.953Z,9.18
2023-04-02T11:38:55.022Z,9.22
2023-04-02T11:40:07.494Z,9.25
2023-04-02T11:41:09.014Z,9.27
2023-04-02T11:42:19.817Z,9.25
2023-04-02T11:43:33.210Z,9.28
2023-04-02T11:44:34.678Z,9.31
2023-04-02T11:45:52.939Z,9.30
2023-04-02T11:47:18.850Z,9.28
2023-04-02T11:48:20.457Z,9.21
2023-04-02T11:49:57.915Z,9.24
2023-04-02T11:51:04.629Z,9.27
2023-04-02T11:52:20.985Z,9.30
2023-04-02T11:53:28.549Z,9.25
2023-04-02T11:54:38.092Z,9.21
2023-04-02T11:55:45.513Z,9.19
2023-04-02T11:56:56.402Z,9.19
2023-04-02T11:58:17.176Z,9.21
2023-04-02T11:59:39.844Z,9.22
2023-04-02T12:01:09.258Z,9.14
2023-04-02T12:02:27.920Z,9.16
2023-04-02T12:03:46.234Z,9.21
2023-04-02T12:05:39.682Z,9.22
2023-04-02T12:06:48.539Z,9.30
2023-04-02T12:07:55.772Z,9.26
2023-04-02T12:09:09.141Z,9.29
2023-04-02T12:10:27.154Z,9.34
2023-04-02T12:11:40.062Z,9.38
2023-04-02T12:12:43.109Z,9.27
2023-04-02T12:13:44.483Z,9.33
2023-04-02T12:14:51.272Z,9.36
2023-04-02T12:15:52.770Z,9.36
2023-04-02T12:16:54.466Z,9.39
2023-04-02T12:18:12.709Z,9.40
2023-04-02T12:19:16.777Z,9.36
2023-04-02T12:20:27.467Z,9.35
2023-04-02T12:21:29.937Z,9.33
2023-04-02T12:22:32.691Z,9.34
2023-04-02T12:23:37.147Z,9.33
2023-04-02T12:24:40.958Z,9.32
2023-04-02T12:25:50.644Z,9.20
2023-04-02T12:27:17.003Z,9.11
2023-04-02T12:28:19.659Z,9.06
2023-04-02T12:29:27.568Z,9.08
2023-04-02T12:30:28.970Z,9.06
2023-04-02T12:31:30.726Z,9.07
2023-04-02T12:32:32.360Z,9.05
2023-04-02T12:33:37.556Z,9.05
2023-04-02T12:34:46.430Z,9.04
2023-04-02T12:35:50.751Z,8.96
2023-04-02T12:37:04.155Z,8.93
2023-04-02T12:38:06.100Z,8.92
2023-04-02T12:39:17.015Z,8.93
2023-04-02T12:40:18.887Z,8.93
2023-04-02T12:41:27.300Z,8.97
2023-04-02T12:42:32.333Z,8.98
2023-04-02T12:43:35.739Z,8.97
2023-04-02T12:44:37.337Z,8.97
2023-04-02T12:45:38.790Z,8.97
2023-04-02T12:46:40.706Z,8.95
2023-04-02T12:47:45.332Z,8.96
2023-04-02T12:48:46.859Z,8.89
2023-04-02T12:49:49.453Z,8.87
2023-04-02T12:50:51.367Z,8.90
2023-04-02T12:51:53.167Z,8.90
2023-04-02T12:52:58.276Z,8.91
2023-04-02T12:54:00.227Z,8.90
2023-04-02T12:55:03.865Z,8.90
2023-04-02T12:56:08.181Z,8.87
2023-04-02T12:57:29.767Z,8.89
2023-04-02T12:58:42.851Z,8.94
2023-04-02T12:59:44.437Z,8.90
2023-04-02T13:00:46.255Z,8.97
2023-04-02T13:02:37.370Z,8.97
2023-04-02T13:03:39.225Z,8.96
2023-04-02T13:04:51.986Z,9.02
2023-04-02T13:05:56.420Z,9.02
2023-04-02T13:06:58.469Z,9.04
2023-04-02T13:08:00.052Z,9.02
2023-04-02T13:09:04.577Z,9.00
2023-04-02T13:10:23.277Z,9.00
2023-04-02T13:11:34.870Z,8.97
2023-04-02T13:12:39.334Z,8.96
2023-04-02T13:13:43.889Z,8.96
2023-04-02T13:14:45.386Z,8.94
2023-04-02T13:16:00.870Z,8.94
2023-04-02T13:17:02.326Z,8.94
2023-04-02T13:18:14.610Z,8.97
2023-04-02T13:19:32.429Z,8.94
2023-04-02T13:20:37.861Z,8.96
2023-04-02T13:21:39.615Z,8.94
2023-04-02T13:22:41.385Z,8.92
2023-04-02T13:23:43.899Z,8.90
2023-04-02T13:24:45.480Z,8.89
2023-04-02T13:25:46.958Z,8.89
2023-04-02T13:26:49.922Z,8.82
2023-04-02T13:27:51.512Z,8.86
2023-04-02T13:29:03.502Z,8.94
2023-04-02T13:30:22.381Z,8.90
2023-04-02T13:31:23.942Z,8.86
2023-04-02T13:32:26.065Z,8.86
2023-04-02T13:33:27.816Z,8.82
2023-04-02T13:34:29.779Z,8.81
2023-04-02T13:35:31.713Z,8.84
2023-04-02T13:36:33.592Z,8.80
2023-04-02T13:37:35.040Z,8.78
2023-04-02T13:38:36.853Z,8.78
2023-04-02T13:39:38.271Z,8.75
2023-04-02T13:40:40.022Z,8.76
2023-04-02T13:41:46.595Z,8.78
2023-04-02T13:42:49.713Z,8.77
2023-04-02T13:43:52.431Z,8.76
2023-04-02T13:44:53.897Z,8.71
2023-04-02T13:45:58.365Z,8.69
2023-04-02T13:47:00.152Z,8.65
2023-04-02T13:48:02.256Z,8.65
2023-04-02T13:49:03.830Z,8.67
2023-04-02T13:50:05.841Z,8.64
2023-04-02T13:51:08.759Z,8.57
2023-04-02T13:52:15.032Z,8.60
2023-04-02T13:53:25.800Z,8.59
2023-04-02T13:54:31.215Z,8.59
2023-04-02T13:55:37.651Z,8.59
2023-04-02T13:56:39.306Z,8.56
2023-04-02T13:57:41.008Z,8.56
2023-04-02T13:58:42.428Z,8.53
2023-04-02T13:59:43.877Z,8.51
2023-04-02T14:00:46.512Z,8.46
2023-04-02T14:01:51.252Z,8.43
2023-04-02T14:03:04.758Z,8.34
2023-04-02T14:04:07.466Z,8.25
2023-04-02T14:05:32.005Z,8.28
2023-04-02T14:07:23.720Z,8.21
2023-04-02T14:08:48.064Z,8.03
2023-04-02T14:10:14.264Z,7.94
2023-04-02T14:11:27.872Z,7.93
2023-04-02T14:12:41.475Z,7.93
2023-04-02T14:14:08.800Z,7.91
2023-04-02T14:15:36.578Z,7.86
2023-04-02T14:16:46.480Z,7.76
2023-04-02T14:18:15.872Z,7.76
2023-04-02T14:19:45.242Z,7.78
2023-04-02T14:20:58.735Z,7.73
2023-04-02T14:22:06.145Z,7.75
2023-04-02T14:23:17.629Z,7.73
2023-04-02T14:24:40.632Z,7.67
2023-04-02T14:26:01.104Z,7.67
2023-04-02T14:27:03.602Z,7.68
2023-04-02T14:28:26.956Z,7.72
2023-04-02T14:29:51.170Z,7.76
2023-04-02T14:31:18.965Z,7.77
2023-04-02T14:32:27.611Z,7.80
2023-04-02T14:33:41.291Z,7.81
2023-04-02T14:35:16.680Z,7.86
2023-04-02T14:36:23.308Z,7.86
2023-04-02T14:37:42.073Z,7.85
2023-04-02T14:38:57.686Z,7.85
2023-04-02T14:40:14.477Z,7.86
2023-04-02T14:41:38.213Z,7.84
2023-04-02T14:43:01.962Z,7.90
2023-04-02T14:44:06.014Z,7.84
2023-04-02T14:45:10.460Z,7.83
2023-04-02T14:46:12.265Z,7.82
2023-04-02T14:47:31.176Z,7.81
2023-04-02T14:48:54.367Z,7.84
2023-04-02T14:50:02.911Z,7.83
2023-04-02T14:51:30.862Z,7.90
2023-04-02T14:52:35.387Z,7.91
2023-04-02T14:53:58.210Z,7.88
2023-04-02T14:55:04.225Z,7.77
2023-04-02T14:56:08.462Z,7.75
2023-04-02T14:57:21.904Z,7.77
2023-04-02T14:58:29.226Z,7.74
2023-04-02T14:59:50.294Z,7.67
2023-04-02T15:01:15.316Z,7.62
2023-04-02T15:02:22.605Z,7.55
2023-04-02T15:03:29.562Z,7.58
2023-04-02T15:04:38.132Z,7.58
2023-04-02T15:05:44.536Z,7.59
2023-04-02T15:06:51.428Z,7.62
2023-04-02T15:08:07.069Z,7.67
2023-04-02T15:09:16.548Z,7.66
2023-04-02T15:10:29.147Z,7.70
2023-04-02T15:12:07.383Z,7.73
2023-04-02T15:13:19.878Z,7.77
2023-04-02T15:14:28.025Z,7.66
2023-04-02T15:15:47.505Z,7.74
2023-04-02T15:16:49.215Z,7.79
2023-04-02T15:17:51.313Z,7.76
2023-04-02T15:18:56.566Z,7.71
2023-04-02T15:20:15.017Z,7.59
2023-04-02T15:21:19.338Z,7.59
2023-04-02T15:22:47.878Z,7.66
2023-04-02T15:24:17.187Z,7.69
2023-04-02T15:25:37.743Z,7.70
2023-04-02T15:26:51.474Z,7.73
2023-04-02T15:28:12.893Z,7.74
2023-04-02T15:29:42.797Z,7.74
2023-04-02T15:30:45.971Z,7.69
2023-04-02T15:31:47.586Z,7.72
2023-04-02T15:32:49.544Z,7.72
2023-04-02T15:34:21.617Z,7.69
2023-04-02T15:35:43.623Z,7.64
2023-04-02T15:36:49.584Z,7.64
2023-04-02T15:38:00.055Z,7.60
2023-04-02T15:39:12.960Z,7.54
2023-04-02T15:40:34.721Z,7.54
2023-04-02T15:41:47.418Z,7.50
2023-04-02T15:43:00.478Z,7.46
2023-04-02T15:44:15.545Z,7.40
2023-04-02T15:45:38.066Z,7.39
2023-04-02T15:46:58.476Z,7.31
2023-04-02T15:48:18.394Z,7.22
2023-04-02T15:49:33.708Z,7.16
2023-04-02T15:50:40.986Z,7.16
2023-04-02T15:52:13.471Z,7.18
2023-04-02T15:53:26.890Z,7.22
2023-04-02T15:55:03.951Z,7.26
2023-04-02T15:56:19.480Z,7.29
2023-04-02T15:57:59.233Z,7.27
2023-04-02T15:59:22.651Z,7.24
2023-04-02T16:00:29.697Z,7.21
2023-04-02T16:01:33.925Z,7.19
2023-04-02T16:02:46.374Z,7.22
2023-04-02T16:03:47.953Z,7.19
2023-04-02T16:05:01.206Z,7.21
2023-04-02T16:06:13.142Z,7.23
2023-04-02T16:07:33.521Z,7.26
2023-04-02T16:09:21.228Z,7.28
2023-04-02T16:10:41.231Z,7.27
2023-04-02T16:11:44.159Z,7.28
2023-04-02T16:12:47.577Z,7.21
2023-04-02T16:13:49.149Z,7.23
2023-04-02T16:14:50.667Z,7.24
2023-04-02T16:16:01.853Z,7.24
2023-04-02T16:17:23.864Z,7.23
2023-04-02T16:19:15.967Z,7.27
2023-04-02T16:20:29.494Z,7.25
2023-04-02T16:21:40.375Z,7.20
2023-04-02T16:22:59.213Z,7.22
2023-04-02T16:24:01.972Z,7.21
2023-04-02T16:25:19.550Z,7.21
2023-04-02T16:26:27.132Z,7.22
2023-04-02T16:27:38.254Z,7.24
2023-04-02T16:28:42.757Z,7.29
2023-04-02T16:31:21.906Z,7.28
2023-04-02T16:33:01.011Z,7.26
2023-04-02T16:34:05.483Z,7.23
2023-04-02T16:35:40.750Z,7.25
2023-04-02T16:37:04.879Z,7.18
2023-04-02T16:38:17.748Z,7.21
2023-04-02T16:39:38.866Z,7.21
2023-04-02T16:41:08.413Z,7.15
2023-04-02T16:42:19.730Z,7.14
2023-04-02T16:43:40.386Z,7.15
2023-04-02T16:44:50.338Z,7.15
2023-04-02T16:45:57.608Z,7.16
2023-04-02T16:47:20.940Z,7.13
2023-04-02T16:48:36.237Z,7.15
2023-04-02T16:49:43.461Z,7.16
2023-04-02T16:50:52.394Z,7.15
2023-04-02T16:52:26.849Z,7.21
2023-04-02T16:54:00.305Z,7.17
2023-04-02T16:55:24.112Z,7.18
2023-04-02T16:56:26.771Z,7.14
2023-04-02T16:57:50.879Z,7.09
2023-04-02T16:59:19.787Z,7.02
2023-04-02T17:00:30.666Z,7.03
2023-04-02T17:01:47.773Z,7.02
2023-04-02T17:03:05.561Z,7.02
2023-04-02T17:04:52.419Z,6.97
2023-04-02T17:06:13.400Z,7.00
2023-04-02T17:07:34.856Z,6.98
2023-04-02T17:08:43.172Z,6.99
2023-04-02T17:09:51.495Z,6.95
2023-04-02T17:11:08.844Z,6.92
2023-04-02T17:12:33.270Z,6.85